Flight Track Log - Related Links

Times and Time Zones

All times are in EDT time to prevent confusion due to time zone crossing. See the SWA149 flight status page for this flight to view local times or setup timezone preferences in your user account.

Time Position Orientation Groundspeed Altitude Reporting Facility
EDT Latitude Longitude Course Direction KTS MPH feet Rate Location/Type
Wed 12:49:03 PM 40.7167 -74.1333 21° North 189 217 2,700  Level New York TRACON
Wed 12:50:09 PM 40.7833 -74.1000 21° North 276 318 3,100 1,714 Climbing New York TRACON
Wed 12:51:09 PM 40.8167 -74.2000 294° West 302 348 6,300 2,450 Climbing New York TRACON
Wed 12:52:09 PM 40.8500 -74.3000 294° West 311 358 8,000 2,050 Climbing New York TRACON
Wed 12:53:09 PM 40.8833 -74.4000 294° West 318 366 10,400 2,581 Climbing New York TRACON
Wed 12:53:42 PM 40.9103 -74.4558 303° West 331 381 12,000 2,323 Climbing New York Center
Wed 12:54:42 PM 40.9764 -74.5444 315° West 353 406 14,000 992 Climbing New York Center
Wed 12:55:43 PM 40.9811 -74.6547 273° West 307 353 14,000  Level New York Center
Wed 12:56:43 PM 40.9606 -74.7664 256° West 307 353 14,000  Level New York Center
Wed 12:57:41 PM 40.9400 -74.8831 257° West 319 367 14,000 504 Level New York Center
Wed 12:58:42 PM 40.9194 -74.9944 256° West 319 367 15,000 1,230 Climbing New York Center
Wed 12:59:43 PM 40.8942 -75.1164 255° West 326 375 16,500 1,785 Climbing New York Center
Wed 01:00:43 PM 40.8736 -75.2222 256° West 356 410 18,600 2,678 Climbing New York Center
Wed 01:01:44 PM 40.8406 -75.3764 254° West 381 438 21,900 3,051 Climbing New York Center
Wed 01:02:41 PM 40.8119 -75.5197 255° West 395 455 24,600 2,542 Climbing New York Center
Wed 01:03:42 PM 40.7800 -75.6875 256° West 418 481 26,900 2,083 Climbing New York Center
Wed 01:04:42 PM 40.7464 -75.8439 254° West 433 498 28,800 1,765 Climbing New York Center
Wed 01:05:41 PM 40.7144 -76.0058 255° West 454 522 30,400 1,750 Climbing New York Center
Wed 01:06:42 PM 40.6797 -76.1728 255° West 465 535 32,300 1,770 Climbing New York Center
Wed 01:07:43 PM 40.6367 -76.3364 251° West 470 541 34,000 1,835 Climbing New York Center
Wed 01:08:43 PM 40.5856 -76.4936 247° West 470 541 36,000 2,034 Climbing New York Center
Wed 01:09:41 PM 40.5547 -76.6547 256° West 475 547 38,000 1,008 Climbing New York Center
Wed 01:10:42 PM 40.5717 -76.8147 278° West 446 513 38,000  Level New York Center
Wed 01:11:43 PM 40.5967 -76.9756 282° West 446 513 38,000  Level New York Center
Wed 01:12:43 PM 40.6194 -77.1336 281° West 446 513 38,000  Level New York Center
Wed 01:13:41 PM 40.6397 -77.2969 279° West 451 519 38,000  Level New York Center
Wed 01:14:42 PM 40.6611 -77.4383 281° West 451 519 38,000  Level New York Center
Wed 01:16:45 PM 40.7106 -77.7917 281° West 444 511 38,000  Level Cleveland Center
Wed 01:17:45 PM 40.7333 -77.9553 280° West 449 517 38,000  Level Cleveland Center
Wed 01:18:45 PM 40.7556 -78.1189 280° West 449 517 38,000  Level Cleveland Center
Wed 01:19:45 PM 40.7756 -78.2800 279° West 449 517 38,000  Level Cleveland Center
Wed 01:20:45 PM 40.7956 -78.4439 279° West 449 517 38,000  Level Cleveland Center
Wed 01:21:45 PM 40.8172 -78.6078 280° West 454 522 38,000  Level Cleveland Center
Wed 01:22:45 PM 40.8389 -78.7744 280° West 459 528 38,000  Level Cleveland Center
Wed 01:23:45 PM 40.8619 -78.9358 281° West 459 528 38,000  Level Cleveland Center
Wed 01:24:45 PM 40.8831 -79.0975 280° West 459 528 38,000  Level Cleveland Center
Wed 01:25:45 PM 40.9039 -79.2617 280° West 459 528 38,000  Level Cleveland Center
Wed 01:26:45 PM 40.9222 -79.4289 278° West 459 528 38,000  Level Cleveland Center
Wed 01:27:45 PM 40.9425 -79.5908 279° West 464 534 38,000  Level Cleveland Center
Wed 01:28:45 PM 40.9625 -79.7528 279° West 464 534 38,000  Level Cleveland Center
Wed 01:29:45 PM 40.9825 -79.9175 279° West 464 534 38,000  Level Cleveland Center
Wed 01:30:45 PM 41.0000 -80.0797 278° West 459 528 38,000  Level Cleveland Center
Wed 01:31:45 PM 41.0194 -80.2419 279° West 459 528 38,000  Level Cleveland Center
Wed 01:32:45 PM 41.0386 -80.4097 279° West 464 534 38,000  Level Cleveland Center
Wed 01:33:45 PM 41.0553 -80.5694 278° West 464 534 38,000  Level Cleveland Center
Wed 01:34:45 PM 41.0739 -80.7319 279° West 464 534 38,000  Level Cleveland Center
Wed 01:35:45 PM 41.0903 -80.8944 278° West 459 528 38,000  Level Cleveland Center
Wed 01:36:46 PM 41.1086 -81.0544 279° West 452 520 38,000  Level Cleveland Center
Wed 01:37:45 PM 41.1222 -81.2169 276° West 452 520 38,000  Level Cleveland Center
Wed 01:38:45 PM 41.1381 -81.3772 278° West 445 512 38,000  Level Cleveland Center
Wed 01:39:45 PM 41.1597 -81.5347 280° West 445 512 38,000  Level Cleveland Center
Wed 01:40:45 PM 41.1769 -81.6947 278° West 445 512 38,000  Level Cleveland Center
Wed 01:41:46 PM 41.1900 -81.8578 276° West 445 512 38,000  Level Cleveland Center
Wed 01:42:45 PM 41.2089 -82.0183 279° West 445 512 38,000  Level Cleveland Center
Wed 01:43:45 PM 41.2192 -82.1842 275° West 451 519 38,000  Level Cleveland Center
Wed 01:44:45 PM 41.2356 -82.3475 278° West 451 519 38,000  Level Cleveland Center
Wed 01:45:45 PM 41.2494 -82.5108 277° West 446 513 38,000  Level Cleveland Center
Wed 01:46:45 PM 41.2656 -82.6689 278° West 440 506 38,000  Level Cleveland Center
Wed 01:47:45 PM 41.2811 -82.8322 277° West 440 506 38,000  Level Cleveland Center
Wed 01:48:45 PM 41.2947 -82.9903 277° West 445 512 38,000  Level Cleveland Center
Wed 01:49:45 PM 41.3061 -83.1344 276° West 445 512 38,000  Level Cleveland Center
Wed 01:50:45 PM 41.3192 -83.2900 276° West 439 505 38,000  Level Cleveland Center
Wed 01:51:45 PM 41.3319 -83.4508 276° West 439 505 38,000  Level Cleveland Center
Wed 01:52:45 PM 41.3444 -83.6092 276° West 439 505 38,000  Level Cleveland Center
Wed 01:53:45 PM 41.3589 -83.7703 277° West 439 505 38,000  Level Cleveland Center
Wed 01:54:45 PM 41.3711 -83.9286 276° West 439 505 38,000  Level Cleveland Center
Wed 01:55:46 PM 41.3831 -84.0842 276° West 439 505 38,000 -1,100 Level Cleveland Center
Wed 01:56:45 PM 41.4028 -84.2569 279° West 433 498 35,800 -2,540 Descending Cleveland Center
Wed 01:58:29 PM 41.4211 -84.5086 276° West 426 490 31,100 -2,096 Descending Chicago Center
Wed 01:59:31 PM 41.4333 -84.6656 276° West 427 491 30,000 -537 Descending Chicago Center
Wed 02:00:32 PM 41.4439 -84.8244 275° West 429 494 30,000  Level Chicago Center
Wed 02:01:34 PM 41.4558 -84.9825 276° West 429 494 30,000 -726 Level Chicago Center
Wed 02:02:36 PM 41.4689 -85.1711 275° West 425 489 28,500 -1,887 Descending Chicago Center
Wed 02:03:38 PM 41.4783 -85.3222 275° West 408 470 26,100 -1,935 Descending Chicago Center
Wed 02:04:40 PM 41.4883 -85.4717 275° West 398 458 24,500 -1,355 Descending Chicago Center
Wed 02:05:42 PM 41.4983 -85.6150 275° West 382 440 23,300 -1,161 Descending Chicago Center
Wed 02:06:44 PM 41.5075 -85.7633 275° West 395 455 22,100 -1,790 Descending Chicago Center
Wed 02:07:46 PM 41.5169 -85.9106 275° West 396 456 19,600 -2,390 Descending Chicago Center
Wed 02:08:47 PM 41.5247 -86.0514 274° West 384 442 17,200 -2,439 Descending Chicago Center
Wed 02:09:49 PM 41.5236 -86.1878 269° West 371 427 14,600 -2,468 Descending Chicago Center
Wed 02:10:51 PM 41.5225 -86.3222 269° West 363 418 12,100 -2,032 Descending Chicago Center
Wed 02:11:53 PM 41.5219 -86.4778 270° West 351 404 10,400 -1,016 Descending Chicago Center
Wed 02:12:55 PM 41.5214 -86.6039 270° West 343 395 10,000 -194 Descending Chicago Center
Wed 02:13:57 PM 41.5206 -86.7358 270° West 340 391 10,000  Level Chicago Center
Wed 02:14:59 PM 41.5189 -86.8511 269° West 313 360 10,000 -532 Level Chicago Center
Wed 02:16:01 PM 41.5181 -86.9531 269° West 280 322 8,900 -1,258 Descending Chicago Center
Wed 02:17:03 PM 41.5161 -87.0536 269° West 276 318 7,400 -1,403 Descending Chicago Center
Wed 02:18:05 PM 41.5156 -87.1733 270° West 272 313 6,000 -894 Descending Chicago Center
Wed 02:18:37 PM 41.5167 -87.2167 272° West 266 306 6,000 -673 Level Chicago TRACON
Wed 02:19:43 PM 41.5167 -87.3333 270° West 269 310 4,900 -1,000 Descending Chicago TRACON
Wed 02:20:37 PM 41.5167 -87.4167 270° West 267 307 4,000 -607 Descending Chicago TRACON
Wed 02:21:12 PM 41.5125 -87.4672 264° West 267 307 4,000  Level Chicago Center
Wed 02:22:14 PM 41.5267 -87.5592 282° West 263 303 4,000 -290 Level Chicago Center
Wed 02:23:16 PM 41.5769 -87.6500 307° West 258 297 3,400 -726 Descending Chicago Center
Wed 02:24:18 PM 41.6269 -87.7194 314° West 261 300 2,500 -667 Descending Chicago Center
Wed 02:24:37 PM 41.6500 -87.7500 315° West 236 272 2,500  Level Chicago TRACON
Wed 02:25:37 PM 41.6833 -87.8000 312° West 215 247 2,500 -198 Level Chicago TRACON
Wed 02:26:38 PM 41.7333 -87.8167 346° North 179 206 2,100 -595 Descending Chicago TRACON
Wed 02:27:38 PM 41.7500 -87.7833 56° Northeast 127 146 1,300 -800 Descending Chicago TRACON
Wed 02:30:00 PM 41.7833 -87.7500 334° Northwest  Level FlightAware Approximate

Login

Don't have an account? Register now (free) for customized features, flight alerts, and more!